createdAt,value
2019-03-18T00:01:17.920Z,7.90
2019-03-18T00:03:45.616Z,7.90
2019-03-18T00:06:12.600Z,7.90
2019-03-18T00:08:39.481Z,8.00
2019-03-18T00:11:07.279Z,7.90
2019-03-18T00:13:34.856Z,7.90
2019-03-18T00:16:01.945Z,8.00
2019-03-18T00:18:29.923Z,8.00
2019-03-18T00:20:57.178Z,8.00
2019-03-18T00:23:26.103Z,8.00
2019-03-18T00:25:54.989Z,8.10
2019-03-18T00:28:22.312Z,8.20
2019-03-18T00:30:50.131Z,8.20
2019-03-18T00:33:18.779Z,8.10
2019-03-18T00:35:46.157Z,8.10
2019-03-18T00:38:12.980Z,8.10
2019-03-18T00:40:40.352Z,8.10
2019-03-18T00:43:07.772Z,8.00
2019-03-18T00:45:35.267Z,8.00
2019-03-18T00:48:02.410Z,7.90
2019-03-18T00:50:29.407Z,7.90
2019-03-18T00:52:56.524Z,7.90
2019-03-18T00:55:23.531Z,7.90
2019-03-18T00:57:50.501Z,7.90
2019-03-18T01:00:19.489Z,7.90
2019-03-18T01:02:49.511Z,7.90
2019-03-18T01:05:15.932Z,7.80
2019-03-18T01:07:43.712Z,7.80
2019-03-18T01:10:10.859Z,7.80
2019-03-18T01:12:38.407Z,7.80
2019-03-18T01:15:05.840Z,7.70
2019-03-18T01:17:33.267Z,7.70
2019-03-18T01:20:00.804Z,7.70
2019-03-18T01:22:28.380Z,7.70
2019-03-18T01:24:55.900Z,7.70
2019-03-18T01:27:25.377Z,7.70
2019-03-18T01:29:52.188Z,7.70
2019-03-18T01:32:20.116Z,7.70
2019-03-18T01:34:47.379Z,7.70
2019-03-18T01:37:14.367Z,7.70
2019-03-18T01:39:42.519Z,7.70
2019-03-18T01:42:09.516Z,7.70
2019-03-18T01:44:37.320Z,7.70
2019-03-18T01:47:04.708Z,7.60
2019-03-18T01:49:33.087Z,7.70
2019-03-18T01:52:02.128Z,7.60
2019-03-18T01:54:31.114Z,7.70
2019-03-18T01:56:58.907Z,7.50
2019-03-18T01:59:25.913Z,7.50
2019-03-18T02:01:54.055Z,7.70
2019-03-18T02:04:21.484Z,7.60
2019-03-18T02:06:49.376Z,7.50
2019-03-18T02:09:16.840Z,7.60
2019-03-18T02:11:43.831Z,7.50
2019-03-18T02:14:10.811Z,7.50
2019-03-18T02:16:38.283Z,7.50
2019-03-18T02:19:05.746Z,7.50
2019-03-18T02:21:33.795Z,7.50
2019-03-18T02:24:00.843Z,7.50
2019-03-18T02:26:29.021Z,7.50
2019-03-18T02:28:57.016Z,7.50
2019-03-18T02:31:25.070Z,7.50
2019-03-18T02:33:52.665Z,7.60
2019-03-18T02:36:20.461Z,7.60
2019-03-18T02:38:47.541Z,7.60
2019-03-18T02:41:15.012Z,7.60
2019-03-18T02:43:42.699Z,7.50
2019-03-18T02:46:10.983Z,7.50
2019-03-18T02:48:39.976Z,7.50
2019-03-18T02:51:09.068Z,7.60
2019-03-18T02:53:36.893Z,7.60
2019-03-18T02:56:04.069Z,7.60
2019-03-18T02:58:32.740Z,7.60
2019-03-18T03:01:01.641Z,7.50
2019-03-18T03:03:29.499Z,7.50
2019-03-18T03:05:56.947Z,7.50
2019-03-18T03:08:24.631Z,7.60
2019-03-18T03:10:51.964Z,7.60
2019-03-18T03:13:18.999Z,7.60
2019-03-18T03:15:45.999Z,7.60
2019-03-18T03:18:13.871Z,7.50
2019-03-18T03:20:40.884Z,7.50
2019-03-18T03:23:07.825Z,7.50
2019-03-18T03:25:35.126Z,7.50
2019-03-18T03:28:03.733Z,7.50
2019-03-18T03:30:32.237Z,7.50
2019-03-18T03:32:59.888Z,7.50
2019-03-18T03:35:27.256Z,7.50
2019-03-18T03:37:54.389Z,7.50
2019-03-18T03:40:21.384Z,7.50
2019-03-18T03:42:49.137Z,7.40
2019-03-18T03:45:18.039Z,7.40
2019-03-18T03:47:45.241Z,7.40
2019-03-18T03:50:13.291Z,7.40
2019-03-18T03:52:41.796Z,7.40
2019-03-18T03:55:09.544Z,7.40
2019-03-18T03:57:36.892Z,7.50
2019-03-18T04:00:05.211Z,7.50
2019-03-18T04:02:34.249Z,7.50
2019-03-18T04:05:02.219Z,7.40
2019-03-18T04:07:29.392Z,7.40
2019-03-18T04:09:56.516Z,7.40
2019-03-18T04:12:24.288Z,7.40
2019-03-18T04:14:51.592Z,7.30
2019-03-18T04:17:18.975Z,7.40
2019-03-18T04:19:45.822Z,7.30
2019-03-18T04:22:13.315Z,7.40
2019-03-18T04:24:41.444Z,7.30
2019-03-18T04:27:09.192Z,7.30
2019-03-18T04:29:37.462Z,7.30
2019-03-18T04:32:04.584Z,7.30
2019-03-18T04:34:32.150Z,7.30
2019-03-18T04:37:00.028Z,7.30
2019-03-18T04:39:28.699Z,7.40
2019-03-18T04:41:55.883Z,7.40
2019-03-18T04:44:22.907Z,7.40
2019-03-18T04:46:51.675Z,7.40
2019-03-18T04:49:18.960Z,7.40
2019-03-18T04:51:46.379Z,7.40
2019-03-18T04:54:13.287Z,7.40
2019-03-18T04:56:41.000Z,7.50
2019-03-18T04:59:08.129Z,7.50
2019-03-18T05:01:37.017Z,7.60
2019-03-18T05:04:03.999Z,7.70
2019-03-18T05:06:31.019Z,7.70
2019-03-18T05:08:58.240Z,7.60
2019-03-18T05:11:25.676Z,7.50
2019-03-18T05:13:52.804Z,7.60
2019-03-18T05:16:20.634Z,7.50
2019-03-18T05:18:47.763Z,7.50
2019-03-18T05:21:14.865Z,7.60
2019-03-18T05:23:42.847Z,7.50
2019-03-18T05:26:11.419Z,7.50
2019-03-18T05:28:39.643Z,7.50
2019-03-18T05:31:06.605Z,7.50
2019-03-18T05:33:33.804Z,7.60
2019-03-18T05:36:00.803Z,7.40
2019-03-18T05:38:28.627Z,7.50
2019-03-18T05:40:56.578Z,7.40
2019-03-18T05:43:25.167Z,7.40
2019-03-18T05:45:52.427Z,7.50
2019-03-18T05:48:20.080Z,7.50
2019-03-18T05:50:48.281Z,7.40
2019-03-18T05:53:15.607Z,7.40
2019-03-18T05:55:42.943Z,7.40
2019-03-18T05:58:11.052Z,7.40
2019-03-18T06:00:38.616Z,7.40
2019-03-18T06:03:06.431Z,7.40
2019-03-18T06:05:33.472Z,7.40
2019-03-18T06:08:00.449Z,7.50
2019-03-18T06:10:27.492Z,7.50
2019-03-18T06:12:54.516Z,7.30
2019-03-18T06:15:22.681Z,7.40
2019-03-18T06:17:52.657Z,7.50
2019-03-18T06:20:18.848Z,7.60
2019-03-18T06:22:45.934Z,7.60
2019-03-18T06:25:14.573Z,7.60
2019-03-18T06:27:41.571Z,7.60
2019-03-18T06:30:10.187Z,7.50
2019-03-18T06:32:37.992Z,7.50
2019-03-18T06:35:06.270Z,7.50
2019-03-18T06:37:33.272Z,7.50
2019-03-18T06:40:00.768Z,7.50
2019-03-18T06:42:27.647Z,7.50
2019-03-18T06:44:56.454Z,7.50
2019-03-18T06:47:24.156Z,7.60
2019-03-18T06:49:52.135Z,7.60
2019-03-18T06:52:21.179Z,7.60
2019-03-18T06:54:48.881Z,7.70
2019-03-18T06:57:17.372Z,7.60
2019-03-18T06:59:44.367Z,7.60
2019-03-18T07:02:13.160Z,7.60
2019-03-18T07:04:40.708Z,7.60
2019-03-18T07:07:09.504Z,7.70
2019-03-18T07:09:36.636Z,7.70
2019-03-18T07:12:04.320Z,7.80
2019-03-18T07:14:32.440Z,7.80
2019-03-18T07:17:01.353Z,7.70
2019-03-18T07:19:28.723Z,7.80
2019-03-18T07:21:55.852Z,7.70
2019-03-18T07:24:23.701Z,7.70
2019-03-18T07:26:50.963Z,7.70
2019-03-18T07:29:18.051Z,7.70
2019-03-18T07:31:45.189Z,7.70
2019-03-18T07:34:14.395Z,7.80
2019-03-18T07:36:41.420Z,7.80
2019-03-18T07:39:08.696Z,7.80
2019-03-18T07:41:37.076Z,7.80
2019-03-18T07:44:04.358Z,7.80
2019-03-18T07:46:32.324Z,7.90
2019-03-18T07:49:00.765Z,7.80
2019-03-18T07:51:29.416Z,7.90
2019-03-18T07:53:56.477Z,7.90
2019-03-18T07:56:23.944Z,7.90
2019-03-18T07:58:51.044Z,8.00
2019-03-18T08:01:18.071Z,7.90
2019-03-18T08:03:46.127Z,8.00
2019-03-18T08:06:13.628Z,8.00
2019-03-18T08:08:40.645Z,8.00
2019-03-18T08:11:09.244Z,7.90
2019-03-18T08:13:38.162Z,7.90
2019-03-18T08:16:05.855Z,7.80
2019-03-18T08:18:42.791Z,7.80
2019-03-18T08:21:03.027Z,7.80
2019-03-18T08:23:31.279Z,8.00
2019-03-18T08:25:58.263Z,7.90
2019-03-18T08:28:26.443Z,8.00
2019-03-18T08:30:55.601Z,8.10
2019-03-18T08:33:23.672Z,8.20
2019-03-18T08:35:52.137Z,8.20
2019-03-18T08:38:21.158Z,8.10
2019-03-18T08:40:49.532Z,8.10
2019-03-18T08:43:16.447Z,8.00
2019-03-18T08:45:43.964Z,8.10
2019-03-18T08:48:11.339Z,8.20
2019-03-18T08:50:39.677Z,8.20
2019-03-18T08:53:07.218Z,8.20
2019-03-18T08:55:35.322Z,8.20
2019-03-18T08:58:02.559Z,8.30
2019-03-18T09:00:30.527Z,8.30
2019-03-18T09:02:58.359Z,8.40
2019-03-18T09:05:25.905Z,8.30
2019-03-18T09:07:54.103Z,8.40
2019-03-18T09:10:22.084Z,8.40
2019-03-18T09:12:50.248Z,8.50
2019-03-18T09:15:17.571Z,8.90
2019-03-18T09:17:45.454Z,9.10
2019-03-18T09:20:12.987Z,9.10
2019-03-18T09:22:40.795Z,9.00
2019-03-18T09:25:08.241Z,8.90
2019-03-18T09:27:36.619Z,8.70
2019-03-18T09:30:07.768Z,8.70
2019-03-18T09:32:35.152Z,8.80
2019-03-18T09:35:02.407Z,8.70
2019-03-18T09:37:30.964Z,8.70
2019-03-18T09:39:58.627Z,8.80
2019-03-18T09:42:27.539Z,8.90
2019-03-18T09:44:54.641Z,8.90
2019-03-18T09:47:22.143Z,8.90
2019-03-18T09:49:49.991Z,8.90
2019-03-18T09:52:17.171Z,8.90
2019-03-18T09:54:45.003Z,8.90
2019-03-18T09:57:24.845Z,8.90
2019-03-18T09:59:41.708Z,9.10
2019-03-18T10:02:10.137Z,9.20
2019-03-18T10:04:37.632Z,9.30
2019-03-18T10:07:05.326Z,9.30
2019-03-18T10:09:34.337Z,9.30
2019-03-18T10:12:01.541Z,9.40
2019-03-18T10:14:28.516Z,9.40
2019-03-18T10:17:08.746Z,9.40
2019-03-18T10:19:33.457Z,9.30
2019-03-18T10:21:55.006Z,9.30
2019-03-18T10:24:22.828Z,9.20
2019-03-18T10:26:50.599Z,9.10
2019-03-18T10:29:18.752Z,9.20
2019-03-18T10:31:46.658Z,9.20
2019-03-18T10:34:14.275Z,9.30
2019-03-18T10:36:41.340Z,9.40
2019-03-18T10:39:08.471Z,9.50
2019-03-18T10:41:36.099Z,9.50
2019-03-18T10:44:03.299Z,9.40
2019-03-18T10:46:30.384Z,9.60
2019-03-18T10:48:59.292Z,9.80
2019-03-18T10:51:27.723Z,9.90
2019-03-18T10:53:56.150Z,10.10
2019-03-18T10:56:23.503Z,10.10
2019-03-18T10:58:52.411Z,10.10
2019-03-18T11:01:19.779Z,10.20
2019-03-18T11:03:46.780Z,10.20
2019-03-18T11:06:15.808Z,10.10
2019-03-18T11:08:43.408Z,10.30
2019-03-18T11:11:10.403Z,10.30
2019-03-18T11:13:39.095Z,10.30
2019-03-18T11:16:07.083Z,10.40
2019-03-18T11:18:35.489Z,10.50
2019-03-18T11:21:03.797Z,10.50
2019-03-18T11:23:30.791Z,10.40
2019-03-18T11:25:57.848Z,10.30
2019-03-18T11:28:25.379Z,10.30
2019-03-18T11:30:52.905Z,10.40
2019-03-18T11:33:19.945Z,10.50
2019-03-18T11:35:50.193Z,10.60
2019-03-18T11:38:18.959Z,10.70
2019-03-18T11:40:46.778Z,10.80
2019-03-18T11:43:14.333Z,10.70
2019-03-18T11:45:43.311Z,10.70
2019-03-18T11:48:12.035Z,10.70
2019-03-18T11:50:41.410Z,10.90
2019-03-18T11:53:14.210Z,11.00
2019-03-18T11:55:39.089Z,11.10
2019-03-18T11:58:06.687Z,11.20
2019-03-18T12:00:33.876Z,11.30
2019-03-18T12:03:01.651Z,11.10
2019-03-18T12:05:28.711Z,10.90
2019-03-18T12:07:56.850Z,10.80
2019-03-18T12:10:25.974Z,10.70
2019-03-18T12:12:53.513Z,10.60
2019-03-18T12:15:21.662Z,10.60
2019-03-18T12:17:49.730Z,10.60
2019-03-18T12:20:24.385Z,10.40
2019-03-18T12:22:47.745Z,10.40
2019-03-18T12:25:15.291Z,10.30
2019-03-18T12:27:43.392Z,10.30
2019-03-18T12:30:14.110Z,10.10
2019-03-18T12:32:41.584Z,10.00
2019-03-18T12:35:09.881Z,9.80
2019-03-18T12:37:39.675Z,9.60
2019-03-18T12:40:08.363Z,9.60
2019-03-18T12:42:35.815Z,10.00
2019-03-18T12:45:04.584Z,10.40
2019-03-18T12:47:31.735Z,10.70
2019-03-18T12:49:58.689Z,10.90
2019-03-18T12:52:26.120Z,11.00
2019-03-18T12:54:53.114Z,11.00
2019-03-18T12:57:22.328Z,10.80
2019-03-18T12:59:50.212Z,10.80
2019-03-18T13:02:17.639Z,10.60
2019-03-18T13:04:45.132Z,10.40
2019-03-18T13:07:13.592Z,10.30
2019-03-18T13:09:40.476Z,10.20
2019-03-18T13:12:07.634Z,10.00
2019-03-18T13:14:36.379Z,10.00
2019-03-18T13:17:03.899Z,9.80
2019-03-18T13:19:32.795Z,9.80
2019-03-18T13:22:01.784Z,9.70
2019-03-18T13:24:30.371Z,9.80
2019-03-18T13:26:58.776Z,9.80
2019-03-18T13:29:26.701Z,9.80
2019-03-18T13:31:54.453Z,10.00
2019-03-18T13:34:21.736Z,10.00
2019-03-18T13:36:48.599Z,10.00
2019-03-18T13:39:16.372Z,10.10
2019-03-18T13:41:43.455Z,10.00
2019-03-18T13:44:10.807Z,9.90
2019-03-18T13:46:37.701Z,10.00
2019-03-18T13:49:06.032Z,10.30
2019-03-18T13:51:33.340Z,10.40
2019-03-18T13:54:00.239Z,10.60
2019-03-18T13:56:27.808Z,10.70
2019-03-18T13:58:55.216Z,10.90
2019-03-18T14:01:22.329Z,11.00
2019-03-18T14:03:49.303Z,11.00
2019-03-18T14:06:16.432Z,11.10
2019-03-18T14:08:44.280Z,11.10
2019-03-18T14:11:11.772Z,11.10
2019-03-18T14:13:41.513Z,11.10
2019-03-18T14:16:09.344Z,11.10
2019-03-18T14:18:38.184Z,11.10
2019-03-18T14:21:05.592Z,11.10
2019-03-18T14:23:34.388Z,11.10
2019-03-18T14:26:01.730Z,11.10
2019-03-18T14:28:28.955Z,11.10
2019-03-18T14:30:56.556Z,11.20
2019-03-18T14:33:24.744Z,11.10
2019-03-18T14:35:53.660Z,11.10
2019-03-18T14:38:21.052Z,11.00
2019-03-18T14:40:48.970Z,11.00
2019-03-18T14:43:16.368Z,11.00
2019-03-18T14:45:43.931Z,11.00
2019-03-18T14:48:11.331Z,11.00
2019-03-18T14:50:38.479Z,11.00
2019-03-18T14:53:05.893Z,11.10
2019-03-18T14:55:33.580Z,11.00
2019-03-18T14:58:02.103Z,11.00
2019-03-18T15:00:29.360Z,11.10
2019-03-18T15:02:56.455Z,11.10
2019-03-18T15:05:23.904Z,11.10
2019-03-18T15:07:51.632Z,11.10
2019-03-18T15:10:19.425Z,10.90
2019-03-18T15:12:47.686Z,10.70
2019-03-18T15:15:15.720Z,10.60
2019-03-18T15:17:43.847Z,10.60
2019-03-18T15:20:12.447Z,10.40
2019-03-18T15:22:39.866Z,10.30
2019-03-18T15:25:10.712Z,10.20
2019-03-18T15:27:37.963Z,10.20
2019-03-18T15:30:09.196Z,10.10
2019-03-18T15:32:36.568Z,10.00
2019-03-18T15:35:04.496Z,9.70
2019-03-18T15:37:31.689Z,9.70
2019-03-18T15:39:58.591Z,9.80
2019-03-18T15:42:25.687Z,9.80
2019-03-18T15:44:52.805Z,9.90
2019-03-18T15:47:19.838Z,10.00
2019-03-18T15:49:47.020Z,10.00
2019-03-18T15:52:14.730Z,10.10
2019-03-18T15:54:53.432Z,10.10
2019-03-18T15:57:13.188Z,10.10
2019-03-18T15:59:40.454Z,10.20
2019-03-18T16:02:07.412Z,10.20
2019-03-18T16:04:35.245Z,10.30
2019-03-18T16:07:02.254Z,10.20
2019-03-18T16:09:29.871Z,10.40
2019-03-18T16:11:57.352Z,10.40
2019-03-18T16:14:24.663Z,10.40
2019-03-18T16:17:01.416Z,10.40
2019-03-18T16:19:20.751Z,10.30
2019-03-18T16:21:48.707Z,10.30
2019-03-18T16:24:17.131Z,10.30
2019-03-18T16:26:44.451Z,10.30
2019-03-18T16:29:11.670Z,10.20
2019-03-18T16:31:39.777Z,10.20
2019-03-18T16:34:08.384Z,10.20
2019-03-18T16:36:35.396Z,10.20
2019-03-18T16:39:04.012Z,10.20
2019-03-18T16:41:32.334Z,10.20
2019-03-18T16:44:00.248Z,10.10
2019-03-18T16:46:27.836Z,10.10
2019-03-18T16:48:54.836Z,10.00
2019-03-18T16:51:23.151Z,10.10
2019-03-18T16:53:50.051Z,10.00
2019-03-18T16:56:16.959Z,10.00
2019-03-18T16:58:45.827Z,9.90
2019-03-18T17:01:12.937Z,9.80
2019-03-18T17:03:40.567Z,9.80
2019-03-18T17:06:07.919Z,9.80
2019-03-18T17:08:36.135Z,9.70
2019-03-18T17:11:03.283Z,9.70
2019-03-18T17:13:30.243Z,9.70
2019-03-18T17:15:58.214Z,9.50
2019-03-18T17:18:25.580Z,9.50
2019-03-18T17:20:52.772Z,9.60
2019-03-18T17:23:21.836Z,9.50
2019-03-18T17:25:49.424Z,9.50
2019-03-18T17:28:16.604Z,9.40
2019-03-18T17:30:44.561Z,9.40
2019-03-18T17:33:11.735Z,9.40
2019-03-18T17:35:39.147Z,9.40
2019-03-18T17:38:07.074Z,9.40
2019-03-18T17:40:34.893Z,9.30
2019-03-18T17:43:03.044Z,9.40
2019-03-18T17:45:31.160Z,9.40
2019-03-18T17:47:58.615Z,9.30
2019-03-18T17:50:26.016Z,9.30
2019-03-18T17:53:02.519Z,9.30
2019-03-18T17:55:22.619Z,9.20
2019-03-18T17:57:49.779Z,9.30
2019-03-18T18:00:21.125Z,9.10
2019-03-18T18:02:48.544Z,9.20
2019-03-18T18:05:15.777Z,9.10
2019-03-18T18:07:43.391Z,9.10
2019-03-18T18:10:10.608Z,9.10
2019-03-18T18:12:38.187Z,9.00
2019-03-18T18:15:05.591Z,9.00
2019-03-18T18:17:33.496Z,8.90
2019-03-18T18:20:01.583Z,8.90
2019-03-18T18:22:28.988Z,8.90
2019-03-18T18:24:58.196Z,8.80
2019-03-18T18:27:25.348Z,8.80
2019-03-18T18:29:52.619Z,8.70
2019-03-18T18:32:19.684Z,8.70
2019-03-18T18:34:46.883Z,8.70
2019-03-18T18:37:13.791Z,8.80
2019-03-18T18:39:40.695Z,8.70
2019-03-18T18:42:08.119Z,8.70
2019-03-18T18:44:37.671Z,8.80
2019-03-18T18:47:04.859Z,8.80
2019-03-18T18:49:32.452Z,8.80
2019-03-18T18:51:59.435Z,8.70
2019-03-18T18:54:27.410Z,8.50
2019-03-18T18:56:57.273Z,8.60
2019-03-18T18:59:24.685Z,8.60
2019-03-18T19:01:52.036Z,8.50
2019-03-18T19:04:18.919Z,8.50
2019-03-18T19:06:45.904Z,8.50
2019-03-18T19:09:13.564Z,8.60
2019-03-18T19:11:40.639Z,8.50
2019-03-18T19:14:07.783Z,8.50
2019-03-18T19:16:35.950Z,8.50
2019-03-18T19:19:03.532Z,8.50
2019-03-18T19:21:31.167Z,8.50
2019-03-18T19:23:58.052Z,8.60
2019-03-18T19:26:25.356Z,8.50
2019-03-18T19:28:52.404Z,8.50
2019-03-18T19:31:19.607Z,8.50
2019-03-18T19:33:48.096Z,8.50
2019-03-18T19:36:15.396Z,8.50
2019-03-18T19:38:42.701Z,8.60
2019-03-18T19:41:09.623Z,8.50
2019-03-18T19:43:36.513Z,8.50
2019-03-18T19:46:05.324Z,8.50
2019-03-18T19:48:34.314Z,8.50
2019-03-18T19:51:01.116Z,8.50
2019-03-18T19:53:28.092Z,8.60
2019-03-18T19:55:55.387Z,8.50
2019-03-18T19:58:23.253Z,8.50
2019-03-18T20:00:50.683Z,8.60
2019-03-18T20:03:17.708Z,8.60
2019-03-18T20:05:45.224Z,8.50
2019-03-18T20:08:12.897Z,8.50
2019-03-18T20:10:40.328Z,8.50
2019-03-18T20:13:08.888Z,8.50
2019-03-18T20:15:37.692Z,8.40
2019-03-18T20:18:05.111Z,8.40
2019-03-18T20:20:32.012Z,8.40
2019-03-18T20:22:59.859Z,8.30
2019-03-18T20:25:27.291Z,8.30
2019-03-18T20:27:54.167Z,8.30
2019-03-18T20:30:22.150Z,8.20
2019-03-18T20:32:49.636Z,8.10
2019-03-18T20:35:17.134Z,8.10
2019-03-18T20:37:44.968Z,8.10
2019-03-18T20:40:12.804Z,8.10
2019-03-18T20:42:40.119Z,8.10
2019-03-18T20:45:10.763Z,8.10
2019-03-18T20:47:37.715Z,8.10
2019-03-18T20:50:06.268Z,8.20
2019-03-18T20:52:34.151Z,8.10
2019-03-18T20:55:02.464Z,8.20
2019-03-18T20:57:29.755Z,8.10
2019-03-18T20:59:56.905Z,8.20
2019-03-18T21:02:24.331Z,8.10
2019-03-18T21:04:52.555Z,8.10
2019-03-18T21:07:19.442Z,8.10
2019-03-18T21:09:47.305Z,8.00
2019-03-18T21:12:15.351Z,8.00
2019-03-18T21:14:43.516Z,8.00
2019-03-18T21:17:10.869Z,8.00
2019-03-18T21:19:38.631Z,8.00
2019-03-18T21:22:06.193Z,8.00
2019-03-18T21:24:33.435Z,8.00
2019-03-18T21:27:01.748Z,8.00
2019-03-18T21:29:29.927Z,8.00
2019-03-18T21:31:57.972Z,8.00
2019-03-18T21:34:24.999Z,7.90
2019-03-18T21:36:52.650Z,8.00
2019-03-18T21:39:19.650Z,8.00
2019-03-18T21:41:46.785Z,8.00
2019-03-18T21:44:15.691Z,8.00
2019-03-18T21:46:43.512Z,8.00
2019-03-18T21:49:11.361Z,8.00
2019-03-18T21:51:38.956Z,8.00
2019-03-18T21:54:06.069Z,8.00
2019-03-18T21:56:33.458Z,7.90
2019-03-18T21:59:02.190Z,7.70
2019-03-18T22:01:30.741Z,7.80
2019-03-18T22:03:59.190Z,7.80
2019-03-18T22:06:26.307Z,8.00
2019-03-18T22:08:53.455Z,7.90
2019-03-18T22:11:20.766Z,7.90
2019-03-18T22:13:48.811Z,7.90
2019-03-18T22:16:16.867Z,7.80
2019-03-18T22:18:44.163Z,7.80
2019-03-18T22:21:11.385Z,7.70
2019-03-18T22:23:39.335Z,7.70
2019-03-18T22:26:08.017Z,7.80
2019-03-18T22:28:35.411Z,7.90
2019-03-18T22:31:03.355Z,7.80
2019-03-18T22:33:30.419Z,7.80
2019-03-18T22:35:58.364Z,7.70
2019-03-18T22:38:27.231Z,7.70
2019-03-18T22:40:55.320Z,7.70
2019-03-18T22:43:23.051Z,7.70
2019-03-18T22:45:50.063Z,7.70
2019-03-18T22:48:17.611Z,7.70
2019-03-18T22:50:44.782Z,7.70
2019-03-18T22:53:13.191Z,7.70
2019-03-18T22:55:41.861Z,7.60
2019-03-18T22:58:09.747Z,7.60
2019-03-18T23:00:42.819Z,7.60
2019-03-18T23:03:11.884Z,7.60
2019-03-18T23:05:39.836Z,7.50
2019-03-18T23:08:10.083Z,7.50
2019-03-18T23:10:37.970Z,7.50
2019-03-18T23:13:06.016Z,7.50
2019-03-18T23:15:33.757Z,7.50
2019-03-18T23:18:01.867Z,7.40
2019-03-18T23:20:29.199Z,7.50
2019-03-18T23:22:58.026Z,7.60
2019-03-18T23:25:25.184Z,7.60
2019-03-18T23:27:52.516Z,7.60
2019-03-18T23:30:19.840Z,7.50
2019-03-18T23:32:47.841Z,7.50
2019-03-18T23:35:15.559Z,7.50
2019-03-18T23:37:42.963Z,7.60
2019-03-18T23:40:10.199Z,7.60
2019-03-18T23:42:37.551Z,7.60
2019-03-18T23:45:05.008Z,7.60
2019-03-18T23:47:32.126Z,7.60
2019-03-18T23:50:00.741Z,7.50
2019-03-18T23:52:27.895Z,7.60
2019-03-18T23:54:55.940Z,7.50
2019-03-18T23:57:22.907Z,7.60
2019-03-18T23:59:49.957Z,7.50
